createdAt,value
2017-11-23T00:00:31.701Z,8.17
2017-11-23T00:03:00.135Z,6.50
2017-11-23T00:05:28.530Z,7.80
2017-11-23T00:07:56.908Z,7.80
2017-11-23T00:10:25.396Z,7.00
2017-11-23T00:12:53.777Z,7.03
2017-11-23T00:15:22.155Z,7.17
2017-11-23T00:17:50.555Z,7.40
2017-11-23T00:20:18.933Z,6.87
2017-11-23T00:22:47.321Z,6.70
2017-11-23T00:25:16.665Z,6.80
2017-11-23T00:27:45.116Z,7.23
2017-11-23T00:30:13.528Z,6.57
2017-11-23T00:32:42.010Z,6.70
2017-11-23T00:35:11.318Z,6.40
2017-11-23T00:37:39.713Z,6.90
2017-11-23T00:40:08.148Z,6.13
2017-11-23T00:42:36.553Z,5.90
2017-11-23T00:45:04.956Z,6.57
2017-11-23T00:47:33.510Z,6.13
2017-11-23T00:50:01.886Z,6.20
2017-11-23T00:52:30.277Z,5.53
2017-11-23T00:54:59.885Z,5.90
2017-11-23T00:57:28.604Z,5.97
2017-11-23T00:59:56.997Z,5.37
2017-11-23T01:02:25.422Z,6.93
2017-11-23T01:04:53.800Z,6.00
2017-11-23T01:07:22.946Z,5.40
2017-11-23T01:09:52.393Z,5.53
2017-11-23T01:12:20.779Z,6.43
2017-11-23T01:14:49.210Z,5.87
2017-11-23T01:17:17.842Z,5.17
2017-11-23T01:19:46.250Z,6.27
2017-11-23T01:22:20.184Z,4.83
2017-11-23T01:24:48.639Z,5.60
2017-11-23T01:27:17.247Z,5.70
2017-11-23T01:29:45.672Z,4.73
2017-11-23T01:32:14.117Z,5.90
2017-11-23T01:34:42.537Z,4.90
2017-11-23T01:37:11.157Z,5.23
2017-11-23T01:39:40.163Z,4.93
2017-11-23T01:42:08.623Z,4.90
2017-11-23T01:44:37.306Z,5.10
2017-11-23T01:47:05.674Z,5.00
2017-11-23T01:49:34.476Z,4.73
2017-11-23T01:52:02.896Z,4.37
2017-11-23T01:54:31.329Z,5.03
2017-11-23T01:56:59.708Z,5.07
2017-11-23T01:59:28.186Z,4.53
2017-11-23T02:01:56.597Z,5.17
2017-11-23T02:04:24.968Z,5.00
2017-11-23T02:06:53.395Z,4.80
2017-11-23T02:09:22.558Z,4.70
2017-11-23T02:11:50.951Z,4.80
2017-11-23T02:14:19.393Z,4.90
2017-11-23T02:16:47.763Z,4.87
2017-11-23T02:19:16.246Z,5.40
2017-11-23T02:21:44.823Z,4.80
2017-11-23T02:24:13.197Z,4.60
2017-11-23T02:26:41.577Z,4.40
2017-11-23T02:29:09.985Z,4.53
2017-11-23T02:31:38.393Z,4.90
2017-11-23T02:34:06.790Z,5.00
2017-11-23T02:36:35.215Z,4.80
2017-11-23T02:39:03.600Z,4.20
2017-11-23T02:41:32.597Z,4.77
2017-11-23T02:44:01.183Z,4.60
2017-11-23T02:46:29.566Z,4.97
2017-11-23T02:48:57.964Z,4.97
2017-11-23T02:51:26.518Z,4.27
2017-11-23T02:53:54.915Z,4.47
2017-11-23T02:56:24.147Z,4.70
2017-11-23T02:58:52.574Z,4.10
2017-11-23T03:01:20.949Z,5.00
2017-11-23T03:03:49.329Z,4.07
2017-11-23T03:06:18.004Z,4.33
2017-11-23T03:08:46.391Z,4.90
2017-11-23T03:11:14.772Z,4.33
2017-11-23T03:13:43.196Z,4.00
2017-11-23T03:16:11.581Z,4.57
2017-11-23T03:18:39.960Z,4.10
2017-11-23T03:21:08.915Z,4.20
2017-11-23T03:23:37.282Z,4.03
2017-11-23T03:26:05.663Z,4.30
2017-11-23T03:28:34.654Z,4.40
2017-11-23T03:31:03.042Z,4.60
2017-11-23T03:33:31.466Z,4.47
2017-11-23T03:35:59.869Z,4.53
2017-11-23T03:38:28.325Z,4.10
2017-11-23T03:40:57.527Z,4.63
2017-11-23T03:43:25.982Z,3.70
2017-11-23T03:45:54.429Z,3.43
2017-11-23T03:48:22.813Z,3.93
2017-11-23T03:50:51.641Z,3.90
2017-11-23T03:53:20.704Z,4.40
2017-11-23T03:55:49.097Z,4.30
2017-11-23T03:58:17.505Z,3.47
2017-11-23T04:00:46.579Z,4.00
2017-11-23T04:03:14.972Z,4.03
2017-11-23T04:05:43.405Z,4.30
2017-11-23T04:08:11.786Z,3.97
2017-11-23T04:10:40.165Z,3.83
2017-11-23T04:13:08.692Z,4.00
2017-11-23T04:15:37.075Z,3.90
2017-11-23T04:18:06.305Z,3.80
2017-11-23T04:20:34.723Z,3.63
2017-11-23T04:23:03.098Z,3.90
2017-11-23T04:25:31.473Z,4.53
2017-11-23T04:27:59.886Z,3.80
2017-11-23T04:30:28.260Z,4.17
2017-11-23T04:32:56.644Z,3.43
2017-11-23T04:35:25.148Z,4.80
2017-11-23T04:37:54.376Z,4.20
2017-11-23T04:40:22.804Z,4.23
2017-11-23T04:42:51.216Z,3.93
2017-11-23T04:45:20.353Z,4.07
2017-11-23T04:47:48.741Z,4.40
2017-11-23T04:50:17.199Z,4.03
2017-11-23T04:52:45.580Z,4.40
2017-11-23T04:55:13.949Z,4.13
2017-11-23T04:57:42.717Z,4.03
2017-11-23T05:00:11.129Z,3.70
2017-11-23T05:02:39.572Z,3.23
2017-11-23T05:05:07.989Z,3.50
2017-11-23T05:07:36.359Z,3.93
2017-11-23T05:10:05.016Z,4.30
2017-11-23T05:12:33.453Z,3.60
2017-11-23T05:15:01.837Z,3.93
2017-11-23T05:17:30.233Z,3.60
2017-11-23T05:19:58.792Z,4.53
2017-11-23T05:22:27.200Z,3.23
2017-11-23T05:24:55.591Z,4.67
2017-11-23T05:27:24.017Z,3.77
2017-11-23T05:29:52.468Z,3.53
2017-11-23T05:32:21.493Z,4.17
2017-11-23T05:34:49.938Z,3.63
2017-11-23T05:37:18.339Z,3.93
2017-11-23T05:39:46.742Z,3.80
2017-11-23T05:42:15.216Z,3.40
2017-11-23T05:44:43.595Z,4.00
2017-11-23T05:47:12.762Z,3.63
2017-11-23T05:49:41.953Z,3.60
2017-11-23T05:52:11.247Z,3.40
2017-11-23T05:54:39.627Z,3.93
2017-11-23T05:57:08.048Z,4.20
2017-11-23T05:59:36.469Z,4.23
2017-11-23T06:02:04.877Z,3.50
2017-11-23T06:04:33.482Z,3.50
2017-11-23T06:07:01.861Z,3.40
2017-11-23T06:09:30.263Z,4.10
2017-11-23T06:11:58.661Z,3.60
2017-11-23T06:14:27.068Z,3.40
2017-11-23T06:16:55.456Z,3.60
2017-11-23T06:19:23.881Z,3.80
2017-11-23T06:21:52.244Z,3.83
2017-11-23T06:24:20.622Z,3.67
2017-11-23T06:26:49.120Z,3.43
2017-11-23T06:29:17.482Z,3.30
2017-11-23T06:31:45.859Z,3.50
2017-11-23T06:34:15.035Z,4.60
2017-11-23T06:36:43.425Z,3.80
2017-11-23T06:39:12.568Z,4.23
2017-11-23T06:41:41.610Z,3.73
2017-11-23T06:44:09.981Z,3.63
2017-11-23T06:46:38.357Z,3.90
2017-11-23T06:49:06.956Z,3.90
2017-11-23T06:51:35.368Z,4.60
2017-11-23T06:54:04.355Z,4.20
2017-11-23T06:56:33.474Z,4.03
2017-11-23T06:59:01.860Z,4.57
2017-11-23T07:01:30.248Z,4.17
2017-11-23T07:06:01.405Z,4.30
2017-11-23T07:08:29.812Z,3.60
2017-11-23T07:10:58.191Z,4.07
2017-11-23T07:13:26.616Z,3.83
2017-11-23T07:15:54.992Z,4.87
2017-11-23T07:18:23.433Z,6.07
2017-11-23T07:20:51.843Z,4.23
2017-11-23T07:23:20.275Z,4.70
2017-11-23T07:25:48.691Z,4.37
2017-11-23T07:28:20.205Z,4.70
2017-11-23T07:30:48.582Z,4.80
2017-11-23T07:33:16.984Z,4.47
2017-11-23T07:35:45.448Z,4.60
2017-11-23T07:38:13.836Z,4.43
2017-11-23T07:40:42.236Z,4.50
2017-11-23T07:43:10.671Z,4.93
2017-11-23T07:45:39.077Z,4.23
2017-11-23T07:48:07.461Z,4.73
2017-11-23T07:50:36.158Z,4.20
2017-11-23T07:53:04.692Z,3.60
2017-11-23T07:55:33.139Z,4.80
2017-11-23T07:58:02.328Z,4.57
2017-11-23T08:00:31.493Z,4.80
2017-11-23T08:02:59.869Z,4.13
2017-11-23T08:05:28.305Z,5.33
2017-11-23T08:07:57.457Z,4.67
2017-11-23T08:10:25.851Z,4.77
2017-11-23T08:12:54.708Z,4.70
2017-11-23T08:15:23.863Z,4.67
2017-11-23T08:17:53.008Z,4.83
2017-11-23T08:20:21.470Z,4.50
2017-11-23T08:22:49.853Z,4.87
2017-11-23T08:25:18.229Z,4.47
2017-11-23T08:27:46.638Z,5.30
2017-11-23T08:30:15.043Z,4.30
2017-11-23T08:32:43.414Z,4.83
2017-11-23T08:35:11.902Z,5.40
2017-11-23T08:37:40.277Z,4.80
2017-11-23T08:40:09.113Z,5.10
2017-11-23T08:42:37.539Z,5.13
2017-11-23T08:45:06.669Z,4.70
2017-11-23T08:47:35.812Z,4.70
2017-11-23T08:50:04.216Z,4.50
2017-11-23T08:52:34.528Z,5.20
2017-11-23T08:55:03.332Z,4.30
2017-11-23T08:57:31.849Z,4.50
2017-11-23T09:00:00.254Z,4.90
2017-11-23T09:02:29.402Z,4.93
2017-11-23T09:04:57.882Z,4.83
2017-11-23T09:07:26.281Z,4.37
2017-11-23T09:09:55.427Z,5.33
2017-11-23T09:12:29.320Z,5.20
2017-11-23T09:14:59.661Z,5.33
2017-11-23T09:17:28.601Z,5.73
2017-11-23T09:19:57.177Z,5.57
2017-11-23T09:22:25.546Z,4.93
2017-11-23T09:24:53.952Z,5.30
2017-11-23T09:27:22.377Z,5.43
2017-11-23T09:29:50.768Z,5.60
2017-11-23T09:32:19.162Z,5.53
2017-11-23T09:34:47.573Z,5.43
2017-11-23T09:37:16.738Z,5.50
2017-11-23T09:39:45.137Z,5.40
2017-11-23T09:42:15.245Z,5.17
2017-11-23T09:44:43.650Z,5.07
2017-11-23T09:47:12.149Z,5.40
2017-11-23T09:49:40.934Z,6.03
2017-11-23T09:52:09.325Z,5.23
2017-11-23T09:54:37.723Z,5.20
2017-11-23T09:57:07.223Z,4.97
2017-11-23T09:59:36.364Z,5.53
2017-11-23T10:02:04.760Z,5.40
2017-11-23T10:04:34.088Z,5.77
2017-11-23T10:07:02.481Z,5.60
2017-11-23T10:09:30.888Z,5.43
2017-11-23T10:11:59.667Z,6.23
2017-11-23T10:14:34.170Z,6.20
2017-11-23T10:17:02.596Z,5.83
2017-11-23T10:19:31.197Z,5.40
2017-11-23T10:21:59.948Z,5.40
2017-11-23T10:24:29.854Z,5.87
2017-11-23T10:26:58.264Z,5.50
2017-11-23T10:29:26.714Z,5.63
2017-11-23T10:31:55.145Z,5.27
2017-11-23T10:34:24.381Z,5.60
2017-11-23T10:36:52.841Z,5.73
2017-11-23T10:39:21.281Z,5.00
2017-11-23T10:41:50.462Z,4.80
2017-11-23T10:44:19.000Z,5.53
2017-11-23T10:46:47.489Z,5.73
2017-11-23T10:49:15.864Z,5.10
2017-11-23T10:51:44.285Z,5.03
2017-11-23T10:54:12.709Z,5.60
2017-11-23T10:56:42.165Z,5.60
2017-11-23T10:59:10.589Z,6.23
2017-11-23T11:01:39.007Z,4.93
2017-11-23T11:04:07.378Z,5.17
2017-11-23T11:06:35.748Z,5.80
2017-11-23T11:09:04.352Z,5.70
2017-11-23T11:11:32.726Z,5.27
2017-11-23T11:14:02.025Z,5.30
2017-11-23T11:16:30.492Z,5.30
2017-11-23T11:18:58.932Z,5.13
2017-11-23T11:21:27.346Z,6.40
2017-11-23T11:23:56.564Z,4.60
2017-11-23T11:26:25.732Z,5.27
2017-11-23T11:28:54.116Z,4.93
2017-11-23T11:31:23.567Z,4.40
2017-11-23T11:33:51.954Z,5.30
2017-11-23T11:36:20.384Z,5.90
2017-11-23T11:38:49.552Z,4.90
2017-11-23T11:41:17.924Z,5.20
2017-11-23T11:43:46.354Z,4.50
2017-11-23T11:46:14.774Z,5.23
2017-11-23T11:48:43.180Z,5.77
2017-11-23T11:51:11.581Z,4.77
2017-11-23T11:53:40.204Z,5.00
2017-11-23T11:56:08.590Z,5.83
2017-11-23T11:58:36.985Z,5.27
2017-11-23T12:01:05.443Z,5.40
2017-11-23T12:03:33.876Z,5.07
2017-11-23T12:06:03.018Z,5.80
2017-11-23T12:08:31.449Z,5.60
2017-11-23T12:11:00.630Z,5.03
2017-11-23T12:13:29.017Z,5.37
2017-11-23T12:16:15.958Z,5.10
2017-11-23T12:19:02.090Z,5.33
2017-11-23T12:24:36.779Z,5.57
2017-11-23T12:27:05.208Z,5.10
2017-11-23T12:29:51.048Z,5.83
2017-11-23T12:32:20.098Z,5.17
2017-11-23T12:34:49.387Z,5.37
2017-11-23T12:37:17.772Z,6.03
2017-11-23T12:39:46.215Z,5.60
2017-11-23T12:42:15.366Z,4.77
2017-11-23T12:44:43.840Z,6.77
2017-11-23T12:47:12.262Z,5.90
2017-11-23T12:49:40.660Z,4.83
2017-11-23T12:52:09.320Z,5.73
2017-11-23T12:54:37.806Z,5.53
2017-11-23T12:57:06.183Z,6.50
2017-11-23T12:59:34.558Z,6.20
2017-11-23T13:02:02.984Z,6.77
2017-11-23T13:04:31.396Z,6.60
2017-11-23T13:07:00.548Z,7.83
2017-11-23T13:09:28.977Z,7.70
2017-11-23T13:11:58.162Z,7.40
2017-11-23T13:14:26.558Z,6.70
2017-11-23T13:16:55.225Z,6.60
2017-11-23T13:19:23.614Z,6.93
2017-11-23T13:21:51.995Z,6.30
2017-11-23T13:24:20.467Z,6.60
2017-11-23T13:26:48.841Z,6.97
2017-11-23T13:29:17.250Z,6.13
2017-11-23T13:31:45.694Z,7.10
2017-11-23T13:34:14.089Z,5.67
2017-11-23T13:36:43.282Z,6.20
2017-11-23T13:39:13.210Z,5.93
2017-11-23T13:41:41.729Z,6.10
2017-11-23T13:44:10.130Z,5.10
2017-11-23T13:46:38.632Z,5.80
2017-11-23T13:49:07.030Z,5.47
2017-11-23T13:51:35.542Z,5.97
2017-11-23T13:54:03.980Z,6.07
2017-11-23T13:56:32.415Z,5.97
2017-11-23T13:59:02.024Z,5.43
2017-11-23T14:01:30.651Z,5.00
2017-11-23T14:03:59.045Z,6.13
2017-11-23T14:06:27.469Z,6.20
2017-11-23T14:08:56.533Z,5.13
2017-11-23T14:11:25.184Z,6.10
2017-11-23T14:13:53.731Z,5.47
2017-11-23T14:16:22.222Z,5.57
2017-11-23T14:18:51.476Z,6.83
2017-11-23T14:21:20.434Z,6.20
2017-11-23T14:23:49.009Z,5.53
2017-11-23T14:26:18.526Z,5.40
2017-11-23T14:28:46.967Z,5.60
2017-11-23T14:31:15.377Z,5.97
2017-11-23T14:33:43.756Z,6.30
2017-11-23T14:36:12.952Z,6.70
2017-11-23T14:38:42.279Z,6.37
2017-11-23T14:41:10.697Z,5.63
2017-11-23T14:43:39.093Z,5.90
2017-11-23T14:46:08.367Z,6.50
2017-11-23T14:48:37.006Z,7.43
2017-11-23T14:51:05.405Z,7.37
2017-11-23T14:53:33.894Z,5.90
2017-11-23T14:56:02.291Z,7.07
2017-11-23T14:58:30.688Z,6.70
2017-11-23T15:01:00.042Z,6.43
2017-11-23T15:03:28.420Z,6.13
2017-11-23T15:05:56.818Z,6.40
2017-11-23T15:08:25.328Z,7.20
2017-11-23T15:10:53.721Z,7.33
2017-11-23T15:13:22.131Z,7.43
2017-11-23T15:15:50.585Z,7.63
2017-11-23T15:18:19.762Z,6.93
2017-11-23T15:20:48.190Z,6.80
2017-11-23T15:23:16.680Z,6.43
2017-11-23T15:25:45.125Z,6.00
2017-11-23T15:28:13.545Z,5.90
2017-11-23T15:30:42.279Z,5.60
2017-11-23T15:33:10.899Z,6.43
2017-11-23T15:35:40.095Z,5.63
2017-11-23T15:38:08.588Z,5.87
2017-11-23T15:40:37.025Z,6.50
2017-11-23T15:43:05.637Z,5.67
2017-11-23T15:45:34.220Z,5.63
2017-11-23T15:48:03.361Z,6.10
2017-11-23T15:50:31.778Z,5.50
2017-11-23T15:53:00.412Z,5.17
2017-11-23T15:55:28.803Z,5.20
2017-11-23T15:57:57.195Z,5.10
2017-11-23T16:00:25.667Z,5.80
2017-11-23T16:02:54.224Z,5.87
2017-11-23T16:05:22.642Z,5.80
2017-11-23T16:07:51.163Z,6.30
2017-11-23T16:10:21.083Z,6.33
2017-11-23T16:12:49.531Z,6.37
2017-11-23T16:15:18.238Z,5.63
2017-11-23T16:17:46.780Z,6.80
2017-11-23T16:20:15.928Z,6.13
2017-11-23T16:22:44.400Z,6.30
2017-11-23T16:25:12.812Z,5.67
2017-11-23T16:27:41.230Z,5.83
2017-11-23T16:30:09.641Z,5.73
2017-11-23T16:32:38.060Z,5.17
2017-11-23T16:35:07.259Z,5.10
2017-11-23T16:37:41.400Z,5.07
2017-11-23T16:40:10.644Z,5.00
2017-11-23T16:42:46.250Z,5.20
2017-11-23T16:48:27.738Z,4.43
2017-11-23T16:51:01.677Z,4.47
2017-11-23T16:53:35.713Z,4.63
2017-11-23T16:56:10.260Z,6.07
2017-11-23T16:58:39.466Z,4.83
2017-11-23T17:15:10.902Z,4.63
2017-11-23T17:20:54.718Z,5.03
2017-11-23T17:23:23.115Z,4.80
2017-11-23T17:25:51.596Z,4.13
2017-11-23T17:28:20.072Z,4.20
2017-11-23T17:30:48.928Z,4.17
2017-11-23T17:33:17.358Z,4.50
2017-11-23T17:35:46.228Z,5.20
2017-11-23T17:38:14.610Z,4.57
2017-11-23T17:40:43.031Z,4.83
2017-11-23T17:43:11.513Z,4.10
2017-11-23T17:45:40.792Z,4.53
2017-11-23T17:48:09.174Z,4.43
2017-11-23T17:50:37.696Z,4.20
2017-11-23T17:53:06.267Z,4.30
2017-11-23T17:55:35.129Z,4.50
2017-11-23T17:58:04.436Z,4.50
2017-11-23T18:00:32.836Z,5.30
2017-11-23T18:03:01.245Z,5.30
2017-11-23T18:05:30.294Z,4.37
2017-11-23T18:07:59.460Z,4.63
2017-11-23T18:10:27.859Z,4.50
2017-11-23T18:12:56.305Z,5.40
2017-11-23T18:15:24.745Z,4.27
2017-11-23T18:17:54.138Z,4.77
2017-11-23T18:20:23.448Z,3.17
2017-11-23T18:22:52.614Z,3.47
2017-11-23T18:25:21.270Z,2.60
2017-11-23T18:27:49.704Z,2.33
2017-11-23T18:30:18.848Z,2.20
2017-11-23T18:32:47.307Z,2.30
2017-11-23T18:35:15.788Z,2.83
2017-11-23T18:37:44.218Z,1.90
2017-11-23T18:40:13.309Z,2.23
2017-11-23T18:42:42.252Z,2.20
2017-11-23T18:45:10.662Z,2.70
2017-11-23T18:47:39.054Z,2.50
2017-11-23T18:50:07.487Z,2.67
2017-11-23T18:52:37.081Z,2.40
2017-11-23T18:55:05.579Z,2.20
2017-11-23T18:57:34.028Z,2.30
2017-11-23T19:00:02.653Z,2.10
2017-11-23T19:02:31.122Z,1.87
2017-11-23T19:05:00.568Z,1.80
2017-11-23T19:07:28.981Z,1.73
2017-11-23T19:09:57.385Z,2.00
2017-11-23T19:12:26.883Z,2.50
2017-11-23T19:14:56.081Z,1.40
2017-11-23T19:17:25.250Z,1.87
2017-11-23T19:19:53.706Z,2.33
2017-11-23T19:22:22.108Z,2.40
2017-11-23T19:24:51.306Z,1.73
2017-11-23T19:27:20.116Z,3.20
2017-11-23T19:29:48.569Z,1.50
2017-11-23T19:32:17.067Z,1.83
2017-11-23T19:34:45.493Z,2.30
2017-11-23T19:37:13.921Z,1.73
2017-11-23T19:39:42.333Z,2.77
2017-11-23T19:42:11.621Z,1.97
2017-11-23T19:44:40.022Z,2.10
2017-11-23T19:47:08.499Z,2.60
2017-11-23T19:49:38.061Z,2.20
2017-11-23T19:52:06.507Z,2.03
2017-11-23T19:54:35.497Z,2.83
2017-11-23T19:57:03.974Z,2.17
2017-11-23T19:59:32.457Z,2.20
2017-11-23T20:02:00.859Z,2.80
2017-11-23T20:04:30.081Z,2.80
2017-11-23T20:06:58.500Z,2.90
2017-11-23T20:09:27.693Z,3.30
2017-11-23T20:11:57.090Z,3.27
2017-11-23T20:14:26.112Z,2.77
2017-11-23T20:16:54.547Z,2.60
2017-11-23T20:19:23.248Z,2.70
2017-11-23T20:21:52.110Z,3.13
2017-11-23T20:24:20.508Z,3.00
2017-11-23T20:26:49.206Z,3.27
2017-11-23T20:29:18.377Z,3.20
2017-11-23T20:31:46.803Z,2.77
2017-11-23T20:34:15.277Z,2.70
2017-11-23T20:36:43.711Z,3.50
2017-11-23T20:39:12.137Z,3.03
2017-11-23T20:41:42.109Z,2.60
2017-11-23T20:44:10.501Z,2.97
2017-11-23T20:46:38.959Z,2.93
2017-11-23T20:49:07.415Z,4.03
2017-11-23T20:51:35.818Z,2.87
2017-11-23T20:54:04.219Z,3.80
2017-11-23T20:56:32.797Z,3.47
2017-11-23T20:59:02.058Z,3.03
2017-11-23T21:01:30.485Z,3.67
2017-11-23T21:03:58.913Z,2.70
2017-11-23T21:06:27.296Z,3.40
2017-11-23T21:08:56.029Z,3.50
2017-11-23T21:11:24.440Z,2.90
2017-11-23T21:13:53.632Z,3.20
2017-11-23T21:16:22.838Z,3.03
2017-11-23T21:18:52.093Z,2.83
2017-11-23T21:21:20.479Z,3.13
2017-11-23T21:23:48.887Z,3.00
2017-11-23T21:26:18.091Z,3.13
2017-11-23T21:28:46.491Z,3.23
2017-11-23T21:31:15.639Z,3.00
2017-11-23T21:33:44.139Z,3.20
2017-11-23T21:36:12.537Z,2.60
2017-11-23T21:38:42.503Z,3.20
2017-11-23T21:41:10.972Z,3.20
2017-11-23T21:43:39.402Z,3.07
2017-11-23T21:46:07.847Z,3.67
2017-11-23T21:48:36.270Z,3.30
2017-11-23T21:51:04.938Z,3.40
2017-11-23T21:53:33.345Z,2.60
2017-11-23T21:56:02.535Z,3.00
2017-11-23T21:58:31.693Z,3.57
2017-11-23T22:01:00.954Z,3.10
2017-11-23T22:03:29.521Z,2.30
2017-11-23T22:05:58.673Z,2.33
2017-11-23T22:08:27.055Z,3.50
2017-11-23T22:10:56.409Z,2.10
2017-11-23T22:13:24.811Z,2.70
2017-11-23T22:15:53.185Z,2.60
2017-11-23T22:18:21.617Z,1.97
2017-11-23T22:20:50.005Z,2.43
2017-11-23T22:23:18.385Z,3.00
2017-11-23T22:25:47.033Z,2.50
2017-11-23T22:28:15.443Z,2.03
2017-11-23T22:30:43.893Z,2.10
2017-11-23T22:33:12.325Z,2.00
2017-11-23T22:35:41.471Z,1.80
2017-11-23T22:38:09.850Z,2.30
2017-11-23T22:40:38.813Z,2.10
2017-11-23T22:43:07.213Z,2.00
2017-11-23T22:45:35.696Z,2.43
2017-11-23T22:48:05.524Z,1.83
2017-11-23T22:50:33.921Z,1.90
2017-11-23T22:53:02.346Z,1.87
2017-11-23T22:55:30.776Z,1.90
2017-11-23T22:58:00.040Z,2.03
2017-11-23T23:00:28.493Z,1.80
2017-11-23T23:02:57.752Z,2.20
2017-11-23T23:05:27.710Z,1.60
2017-11-23T23:07:56.872Z,2.00
2017-11-23T23:10:25.516Z,1.80
2017-11-23T23:12:53.985Z,1.63
2017-11-23T23:15:22.433Z,1.90
2017-11-23T23:17:50.955Z,1.57
2017-11-23T23:20:19.356Z,1.93
2017-11-23T23:22:47.745Z,1.57
2017-11-23T23:25:16.960Z,1.90
2017-11-23T23:27:45.410Z,1.83
2017-11-23T23:30:13.859Z,1.50
2017-11-23T23:32:43.410Z,2.03
2017-11-23T23:35:11.788Z,1.50
2017-11-23T23:37:40.973Z,1.80
2017-11-23T23:40:09.385Z,1.47
2017-11-23T23:42:37.793Z,1.73
2017-11-23T23:45:07.000Z,1.40
2017-11-23T23:47:35.477Z,2.23
2017-11-23T23:50:03.894Z,2.30
2017-11-23T23:52:32.905Z,2.00
2017-11-23T23:55:01.578Z,2.00
2017-11-23T23:57:30.909Z,2.20
2017-11-23T23:59:59.331Z,2.40
